Terminal Aerodrome Forecast
Issued by NWS

Home | Current Version | Previous Version | Text Only | Print | Product List | Glossary On
Versions: 1 2 3 4 5 6 7 8 9 10 11 12
824
FTUS42 KMLB 230656 AAA
TAFSUA
TAF AMD
KSUA 230656Z 2307/2406 14008KT P6SM VCSH SCT020 SCT029 BKN035
      TEMPO 2307/2308 2SM +SHRA BKN020 BKN025
     FM231400 11011KT 4SM -SHRA BKN025
     FM232000 12010KT P6SM VCSH SCT025 BKN050=

USA.gov is the U.S. government's official web portal to all federal, state and local government web resources and services.